createdAt,value
2018-05-16T00:00:31.062Z,5.77
2018-05-16T00:02:58.594Z,5.77
2018-05-16T00:05:26.892Z,6.17
2018-05-16T00:07:54.395Z,5.00
2018-05-16T00:10:21.897Z,5.70
2018-05-16T00:12:49.437Z,5.90
2018-05-16T00:15:16.998Z,4.90
2018-05-16T00:17:44.505Z,5.83
2018-05-16T00:20:13.540Z,6.60
2018-05-16T00:22:41.827Z,6.00
2018-05-16T00:25:10.153Z,5.23
2018-05-16T00:27:37.665Z,5.43
2018-05-16T00:30:05.173Z,5.17
2018-05-16T00:32:32.706Z,5.97
2018-05-16T00:35:00.990Z,5.60
2018-05-16T00:37:28.488Z,6.23
2018-05-16T00:39:56.791Z,6.00
2018-05-16T00:42:24.305Z,5.47
2018-05-16T00:44:51.805Z,6.43
2018-05-16T00:47:20.097Z,6.13
2018-05-16T00:49:48.363Z,6.00
2018-05-16T00:52:15.869Z,6.33
2018-05-16T00:54:43.394Z,6.70
2018-05-16T00:57:10.946Z,5.80
2018-05-16T00:59:38.453Z,6.27
2018-05-16T01:02:05.974Z,6.33
2018-05-16T01:04:33.481Z,5.83
2018-05-16T01:07:00.981Z,6.70
2018-05-16T01:09:29.271Z,5.93
2018-05-16T01:11:57.545Z,5.60
2018-05-16T01:14:25.045Z,6.30
2018-05-16T01:16:52.679Z,5.87
2018-05-16T01:19:20.180Z,5.10
2018-05-16T01:21:47.704Z,5.50
2018-05-16T01:24:15.261Z,5.13
2018-05-16T01:26:42.770Z,5.37
2018-05-16T01:29:10.301Z,4.73
2018-05-16T01:31:37.833Z,5.90
2018-05-16T01:34:05.337Z,5.73
2018-05-16T01:36:32.849Z,4.80
2018-05-16T01:39:00.385Z,4.67
2018-05-16T01:41:27.889Z,4.60
2018-05-16T01:43:55.397Z,4.73
2018-05-16T01:46:22.998Z,3.57
2018-05-16T01:52:00.493Z,3.70
2018-05-16T01:54:27.994Z,3.87
2018-05-16T01:56:55.525Z,3.83
2018-05-16T01:59:23.785Z,4.10
2018-05-16T02:01:51.306Z,4.40
2018-05-16T02:04:18.833Z,4.50
2018-05-16T02:06:46.357Z,4.83
2018-05-16T02:09:13.888Z,4.53
2018-05-16T02:11:42.157Z,4.47
2018-05-16T02:14:09.706Z,4.40
2018-05-16T02:16:37.248Z,7.67
2018-05-16T02:19:05.489Z,4.77
2018-05-16T02:21:33.038Z,5.20
2018-05-16T02:24:00.543Z,4.70
2018-05-16T02:26:28.809Z,5.13
2018-05-16T02:28:56.333Z,4.60
2018-05-16T02:31:23.837Z,5.23
2018-05-16T02:33:51.561Z,4.73
2018-05-16T02:36:19.825Z,4.90
2018-05-16T02:38:47.325Z,5.70
2018-05-16T02:41:14.845Z,4.97
2018-05-16T02:43:42.359Z,4.60
2018-05-16T02:46:10.678Z,5.80
2018-05-16T02:48:38.173Z,5.53
2018-05-16T02:51:05.673Z,5.00
2018-05-16T02:53:34.089Z,5.07
2018-05-16T02:56:01.605Z,4.90
2018-05-16T02:58:29.137Z,4.97
2018-05-16T03:00:56.638Z,5.17
2018-05-16T03:03:24.138Z,4.87
2018-05-16T03:05:51.666Z,4.93
2018-05-16T03:08:19.199Z,4.60
2018-05-16T03:10:46.977Z,5.07
2018-05-16T03:13:14.488Z,4.37
2018-05-16T03:15:41.996Z,4.40
2018-05-16T03:18:09.521Z,4.83
2018-05-16T03:20:37.193Z,5.70
2018-05-16T03:23:04.746Z,5.07
2018-05-16T03:25:32.253Z,4.43
2018-05-16T03:27:59.796Z,5.13
2018-05-16T03:30:27.321Z,4.70
2018-05-16T03:32:54.822Z,4.90
2018-05-16T03:35:22.366Z,5.63
2018-05-16T03:37:49.891Z,5.03
2018-05-16T03:40:17.423Z,4.47
2018-05-16T03:42:45.699Z,4.27
2018-05-16T03:45:13.965Z,4.90
2018-05-16T03:47:41.484Z,6.07
2018-05-16T03:50:09.010Z,5.10
2018-05-16T03:52:36.533Z,4.47
2018-05-16T03:55:04.106Z,4.50
2018-05-16T03:57:43.572Z,4.83
2018-05-16T04:00:22.941Z,4.20
2018-05-16T04:05:50.089Z,4.43
2018-05-16T04:08:17.613Z,5.03
2018-05-16T04:10:45.118Z,5.17
2018-05-16T04:13:13.413Z,5.20
2018-05-16T04:15:40.926Z,5.20
2018-05-16T04:18:08.425Z,4.67
2018-05-16T04:20:35.957Z,5.07
2018-05-16T04:23:03.473Z,5.57
2018-05-16T04:25:31.794Z,5.40
2018-05-16T04:27:59.318Z,5.50
2018-05-16T04:30:26.845Z,6.53
2018-05-16T04:32:54.369Z,4.90
2018-05-16T04:35:21.874Z,5.77
2018-05-16T04:37:49.414Z,5.43
2018-05-16T04:40:16.914Z,5.97
2018-05-16T04:42:44.420Z,5.67
2018-05-16T04:45:11.993Z,5.03
2018-05-16T04:47:39.509Z,5.20
2018-05-16T04:50:07.883Z,5.50
2018-05-16T04:52:35.385Z,5.40
2018-05-16T04:55:02.888Z,5.43
2018-05-16T04:57:30.404Z,7.10
2018-05-16T04:59:58.672Z,5.90
2018-05-16T05:02:26.192Z,5.83
2018-05-16T05:04:53.714Z,5.97
2018-05-16T05:07:21.218Z,6.40
2018-05-16T05:09:48.758Z,8.93
2018-05-16T05:12:16.262Z,6.10
2018-05-16T05:14:43.761Z,7.50
2018-05-16T05:17:11.282Z,6.17
2018-05-16T05:19:39.546Z,6.00
2018-05-16T05:22:07.070Z,6.57
2018-05-16T05:24:34.572Z,6.67
2018-05-16T05:27:02.095Z,6.10
2018-05-16T05:29:29.599Z,6.30
2018-05-16T05:31:57.143Z,7.13
2018-05-16T05:34:24.637Z,6.50
2018-05-16T05:36:52.176Z,6.53
2018-05-16T05:39:20.441Z,6.67
2018-05-16T05:41:47.941Z,7.43
2018-05-16T05:44:15.464Z,7.07
2018-05-16T05:46:42.965Z,7.43
2018-05-16T05:49:11.268Z,6.40
2018-05-16T05:51:38.785Z,7.00
2018-05-16T05:54:07.073Z,6.80
2018-05-16T05:56:34.590Z,8.30
2018-05-16T05:59:02.093Z,6.43
2018-05-16T06:01:29.617Z,6.80
2018-05-16T06:03:57.885Z,6.67
2018-05-16T06:06:25.390Z,6.63
2018-05-16T06:08:52.922Z,6.93
2018-05-16T06:11:20.418Z,7.03
2018-05-16T06:13:49.852Z,6.40
2018-05-16T06:16:17.356Z,6.80
2018-05-16T06:18:44.887Z,7.70
2018-05-16T06:21:12.389Z,7.77
2018-05-16T06:23:39.895Z,8.30
2018-05-16T06:26:07.422Z,7.70
2018-05-16T06:28:34.922Z,7.70
2018-05-16T06:31:02.445Z,8.00
2018-05-16T06:33:29.953Z,6.70
2018-05-16T06:35:57.479Z,8.10
2018-05-16T06:38:24.981Z,7.17
2018-05-16T06:40:52.509Z,6.20
2018-05-16T06:43:20.774Z,6.47
2018-05-16T06:45:48.280Z,6.23
2018-05-16T06:48:15.817Z,6.73
2018-05-16T06:50:43.317Z,6.27
2018-05-16T06:53:10.853Z,6.40
2018-05-16T06:55:38.357Z,6.07
2018-05-16T06:58:05.877Z,6.30
2018-05-16T07:00:33.383Z,5.80
2018-05-16T07:03:01.689Z,6.30
2018-05-16T07:05:29.194Z,7.43
2018-05-16T07:07:56.706Z,6.37
2018-05-16T07:10:24.994Z,5.60
2018-05-16T07:12:53.269Z,5.77
2018-05-16T07:15:20.893Z,5.60
2018-05-16T07:17:48.405Z,5.93
2018-05-16T07:20:15.930Z,5.97
2018-05-16T07:22:43.515Z,5.70
2018-05-16T07:25:10.993Z,6.17
2018-05-16T07:27:38.493Z,6.63
2018-05-16T07:30:05.989Z,5.73
2018-05-16T07:32:33.603Z,5.83
2018-05-16T07:35:01.026Z,6.67
2018-05-16T07:37:29.310Z,5.87
2018-05-16T07:39:57.577Z,5.77
2018-05-16T07:42:25.358Z,5.97
2018-05-16T07:44:52.860Z,6.90
2018-05-16T07:47:20.385Z,5.50
2018-05-16T07:49:47.886Z,5.97
2018-05-16T07:52:15.391Z,5.77
2018-05-16T07:54:42.913Z,5.17
2018-05-16T07:57:11.249Z,4.83
2018-05-16T07:59:38.790Z,5.17
2018-05-16T08:02:07.053Z,4.83
2018-05-16T08:04:34.577Z,4.83
2018-05-16T08:07:02.077Z,5.70
2018-05-16T08:09:29.621Z,4.90
2018-05-16T08:11:57.197Z,4.70
2018-05-16T08:14:24.705Z,4.83
2018-05-16T08:16:52.242Z,5.10
2018-05-16T08:19:19.746Z,5.20
2018-05-16T08:21:47.578Z,5.07
2018-05-16T08:24:15.973Z,4.60
2018-05-16T08:26:43.493Z,5.23
2018-05-16T08:29:11.762Z,4.80
2018-05-16T08:31:39.571Z,5.40
2018-05-16T08:34:07.838Z,6.73
2018-05-16T08:36:35.365Z,4.97
2018-05-16T08:39:02.896Z,5.43
2018-05-16T08:41:31.166Z,4.80
2018-05-16T08:43:58.733Z,5.53
2018-05-16T08:46:26.233Z,5.20
2018-05-16T08:48:54.688Z,6.10
2018-05-16T08:51:22.190Z,4.80
2018-05-16T08:53:49.722Z,5.13
2018-05-16T08:56:17.225Z,4.97
2018-05-16T08:58:45.493Z,4.70
2018-05-16T09:01:13.103Z,4.27
2018-05-16T09:03:40.533Z,4.80
2018-05-16T09:06:08.054Z,4.93
2018-05-16T09:08:35.554Z,5.33
2018-05-16T09:11:03.078Z,5.10
2018-05-16T09:13:30.573Z,5.80
2018-05-16T09:15:58.100Z,4.90
2018-05-16T09:18:26.369Z,4.70
2018-05-16T09:20:53.874Z,6.37
2018-05-16T09:23:22.157Z,5.47
2018-05-16T09:25:50.422Z,6.57
2018-05-16T09:28:17.941Z,5.33
2018-05-16T09:30:45.437Z,5.57
2018-05-16T09:33:12.962Z,5.43
2018-05-16T09:35:40.465Z,4.60
2018-05-16T09:38:07.965Z,4.53
2018-05-16T09:40:35.485Z,5.33
2018-05-16T09:43:02.986Z,4.97
2018-05-16T09:45:30.507Z,5.07
2018-05-16T09:47:58.014Z,5.30
2018-05-16T09:50:25.537Z,5.03
2018-05-16T09:52:53.811Z,4.50
2018-05-16T09:55:21.916Z,6.40
2018-05-16T09:57:50.185Z,5.33
2018-05-16T10:00:17.700Z,6.63
2018-05-16T10:02:45.300Z,5.30
2018-05-16T10:05:12.785Z,4.73
2018-05-16T10:07:40.305Z,4.70
2018-05-16T10:10:07.804Z,4.77
2018-05-16T10:12:35.330Z,4.40
2018-05-16T10:15:03.645Z,4.40
2018-05-16T10:17:31.201Z,5.00
2018-05-16T10:19:58.704Z,4.60
2018-05-16T10:22:26.206Z,4.40
2018-05-16T10:24:53.729Z,4.40
2018-05-16T10:27:21.233Z,4.50
2018-05-16T10:29:48.754Z,5.07
2018-05-16T10:32:16.258Z,4.73
2018-05-16T10:34:43.781Z,5.03
2018-05-16T10:37:12.045Z,4.77
2018-05-16T10:39:39.573Z,5.30
2018-05-16T10:42:07.066Z,5.33
2018-05-16T10:44:34.565Z,5.43
2018-05-16T10:47:02.854Z,5.17
2018-05-16T10:49:31.158Z,4.90
2018-05-16T10:51:58.678Z,4.60
2018-05-16T10:54:26.186Z,4.67
2018-05-16T10:56:54.481Z,5.00
2018-05-16T10:59:22.758Z,4.33
2018-05-16T11:01:51.053Z,4.40
2018-05-16T11:04:19.321Z,4.40
2018-05-16T11:06:46.822Z,4.57
2018-05-16T11:09:14.366Z,4.63
2018-05-16T11:11:41.869Z,4.90
2018-05-16T11:14:09.393Z,5.00
2018-05-16T11:16:36.896Z,5.47
2018-05-16T11:19:05.185Z,4.43
2018-05-16T11:21:33.449Z,5.67
2018-05-16T11:24:00.977Z,4.50
2018-05-16T11:26:28.477Z,4.50
2018-05-16T11:28:55.986Z,4.00
2018-05-16T11:31:23.514Z,4.20
2018-05-16T11:33:51.018Z,6.80
2018-05-16T11:36:19.309Z,4.93
2018-05-16T11:38:47.578Z,4.77
2018-05-16T11:41:15.097Z,4.13
2018-05-16T11:43:42.605Z,4.73
2018-05-16T11:46:10.139Z,4.03
2018-05-16T11:48:37.649Z,4.57
2018-05-16T11:51:05.153Z,5.30
2018-05-16T11:53:33.441Z,3.50
2018-05-16T11:56:01.054Z,5.83
2018-05-16T11:58:28.573Z,3.50
2018-05-16T12:00:56.849Z,3.07
2018-05-16T12:03:24.373Z,4.13
2018-05-16T12:05:51.880Z,3.80
2018-05-16T12:08:19.384Z,3.20
2018-05-16T12:10:46.916Z,5.03
2018-05-16T12:13:14.413Z,3.73
2018-05-16T12:15:42.697Z,3.37
2018-05-16T12:18:10.967Z,3.37
2018-05-16T12:20:38.490Z,3.87
2018-05-16T12:23:05.990Z,3.80
2018-05-16T12:25:33.490Z,4.07
2018-05-16T12:28:01.778Z,3.60
2018-05-16T12:30:30.046Z,3.53
2018-05-16T12:32:57.577Z,3.97
2018-05-16T12:35:25.078Z,3.37
2018-05-16T12:37:52.599Z,3.53
2018-05-16T12:40:20.102Z,2.80
2018-05-16T12:43:29.309Z,3.10
2018-05-16T12:45:57.145Z,2.67
2018-05-16T12:48:24.682Z,2.50
2018-05-16T12:50:52.373Z,2.87
2018-05-16T12:53:19.914Z,2.80
2018-05-16T12:55:47.493Z,3.10
2018-05-16T12:58:14.933Z,2.87
2018-05-16T13:00:43.222Z,3.60
2018-05-16T13:03:11.486Z,3.00
2018-05-16T13:05:39.005Z,3.60
2018-05-16T13:08:06.505Z,3.77
2018-05-16T13:10:34.030Z,4.00
2018-05-16T13:13:02.340Z,4.43
2018-05-16T13:15:30.618Z,3.40
2018-05-16T13:17:58.121Z,4.37
2018-05-16T13:20:25.642Z,3.40
2018-05-16T13:22:53.930Z,3.50
2018-05-16T13:25:22.836Z,3.63
2018-05-16T13:27:51.131Z,3.60
2018-05-16T13:30:18.628Z,3.80
2018-05-16T13:32:46.145Z,4.20
2018-05-16T13:35:13.658Z,3.67
2018-05-16T13:37:41.187Z,4.07
2018-05-16T13:40:08.686Z,3.37
2018-05-16T13:42:36.186Z,3.70
2018-05-16T13:45:03.713Z,3.93
2018-05-16T13:47:31.981Z,3.63
2018-05-16T13:49:59.502Z,3.33
2018-05-16T13:52:27.011Z,3.50
2018-05-16T13:54:54.529Z,4.87
2018-05-16T13:57:22.029Z,3.53
2018-05-16T13:59:49.817Z,3.67
2018-05-16T14:02:17.317Z,3.60
2018-05-16T14:04:45.585Z,3.37
2018-05-16T14:07:13.114Z,3.57
2018-05-16T14:09:40.613Z,3.67
2018-05-16T14:12:08.137Z,4.13
2018-05-16T14:14:35.650Z,4.10
2018-05-16T14:17:03.178Z,3.50
2018-05-16T14:19:30.673Z,4.67
2018-05-16T14:21:58.173Z,4.97
2018-05-16T14:24:25.693Z,3.90
2018-05-16T14:26:53.193Z,4.37
2018-05-16T14:29:20.718Z,3.83
2018-05-16T14:31:48.233Z,4.07
2018-05-16T14:34:15.757Z,6.30
2018-05-16T14:36:44.025Z,4.17
2018-05-16T14:39:11.532Z,3.90
2018-05-16T14:41:39.054Z,3.73
2018-05-16T14:44:07.704Z,3.70
2018-05-16T14:46:35.234Z,3.50
2018-05-16T14:49:02.734Z,3.70
2018-05-16T14:51:30.264Z,4.10
2018-05-16T14:53:57.761Z,3.60
2018-05-16T14:56:26.054Z,3.40
2018-05-16T14:58:54.318Z,4.23
2018-05-16T15:01:21.817Z,3.50
2018-05-16T15:03:49.342Z,4.03
2018-05-16T15:06:16.849Z,3.83
2018-05-16T15:08:45.137Z,3.70
2018-05-16T15:11:13.405Z,3.60
2018-05-16T15:13:40.926Z,3.73
2018-05-16T15:16:08.430Z,3.87
2018-05-16T15:18:35.973Z,4.10
2018-05-16T15:21:03.469Z,3.70
2018-05-16T15:23:30.969Z,3.63
2018-05-16T15:25:58.489Z,4.23
2018-05-16T15:28:25.997Z,4.10
2018-05-16T15:30:53.533Z,4.13
2018-05-16T15:33:21.042Z,4.13
2018-05-16T15:35:48.600Z,4.30
2018-05-16T15:38:16.142Z,3.73
2018-05-16T15:40:43.633Z,3.93
2018-05-16T15:43:11.170Z,3.70
2018-05-16T15:45:38.670Z,3.90
2018-05-16T15:48:06.213Z,3.70
2018-05-16T15:50:33.718Z,4.27
2018-05-16T15:53:01.238Z,4.63
2018-05-16T15:55:28.748Z,3.90
2018-05-16T15:57:56.290Z,4.40
2018-05-16T16:00:23.794Z,4.30
2018-05-16T16:02:51.299Z,4.80
2018-05-16T16:05:19.589Z,4.20
2018-05-16T16:07:47.860Z,4.07
2018-05-16T16:10:15.384Z,3.70
2018-05-16T16:12:42.887Z,3.70
2018-05-16T16:15:10.410Z,4.37
2018-05-16T16:17:37.922Z,5.80
2018-05-16T16:20:05.446Z,3.97
2018-05-16T16:22:33.326Z,3.43
2018-05-16T16:25:00.830Z,4.33
2018-05-16T16:27:28.349Z,4.03
2018-05-16T16:29:56.628Z,3.53
2018-05-16T16:32:24.917Z,3.70
2018-05-16T16:34:53.185Z,3.83
2018-05-16T16:37:20.709Z,4.27
2018-05-16T16:39:48.208Z,3.70
2018-05-16T16:42:15.709Z,4.20
2018-05-16T16:44:44.040Z,4.00
2018-05-16T16:47:11.525Z,3.87
2018-05-16T16:49:39.045Z,4.47
2018-05-16T16:52:12.041Z,4.10
2018-05-16T16:57:32.130Z,4.53
2018-05-16T17:02:50.909Z,5.23
2018-05-16T17:10:59.919Z,3.43
2018-05-16T17:19:08.666Z,5.40
2018-05-16T17:21:37.721Z,5.83
2018-05-16T17:24:05.225Z,7.97
2018-05-16T17:26:32.754Z,4.70
2018-05-16T17:29:00.256Z,4.40
2018-05-16T17:31:27.759Z,5.93
2018-05-16T17:33:56.074Z,4.20
2018-05-16T17:36:23.713Z,3.90
2018-05-16T17:38:51.237Z,4.43
2018-05-16T17:41:18.741Z,4.80
2018-05-16T17:43:47.534Z,4.30
2018-05-16T17:46:15.035Z,4.57
2018-05-16T17:48:43.345Z,4.40
2018-05-16T17:51:11.026Z,4.10
2018-05-16T17:53:38.570Z,4.07
2018-05-16T17:56:06.857Z,4.40
2018-05-16T17:58:35.122Z,6.57
2018-05-16T18:01:02.647Z,4.47
2018-05-16T18:03:30.153Z,4.50
2018-05-16T18:05:57.653Z,5.03
2018-05-16T18:08:27.809Z,5.03
2018-05-16T18:10:55.921Z,5.60
2018-05-16T18:16:46.191Z,5.23
2018-05-16T18:19:13.716Z,4.87
2018-05-16T18:21:41.217Z,5.40
2018-05-16T18:24:08.749Z,5.33
2018-05-16T18:26:36.257Z,5.57
2018-05-16T18:29:04.039Z,5.47
2018-05-16T18:31:31.561Z,7.10
2018-05-16T18:33:59.061Z,5.90
2018-05-16T18:36:26.584Z,5.90
2018-05-16T18:38:54.861Z,5.90
2018-05-16T18:41:23.165Z,6.20
2018-05-16T18:43:51.446Z,6.50
2018-05-16T18:46:19.728Z,6.37
2018-05-16T18:48:48.025Z,6.13
2018-05-16T18:51:16.294Z,5.70
2018-05-16T18:53:43.821Z,5.67
2018-05-16T18:56:11.324Z,5.80
2018-05-16T18:58:38.858Z,5.53
2018-05-16T19:01:06.375Z,6.90
2018-05-16T19:03:33.884Z,6.00
2018-05-16T19:06:01.422Z,6.07
2018-05-16T19:08:29.695Z,6.47
2018-05-16T19:10:57.226Z,5.30
2018-05-16T19:13:24.725Z,6.63
2018-05-16T19:15:52.545Z,5.50
2018-05-16T19:18:20.810Z,5.83
2018-05-16T19:20:48.313Z,5.73
2018-05-16T19:23:15.836Z,5.57
2018-05-16T19:25:43.341Z,5.73
2018-05-16T19:28:11.635Z,5.67
2018-05-16T19:30:39.132Z,6.23
2018-05-16T19:33:06.697Z,4.70
2018-05-16T19:35:34.204Z,6.40
2018-05-16T19:38:01.713Z,5.77
2018-05-16T19:40:30.083Z,5.80
2018-05-16T19:42:57.526Z,5.70
2018-05-16T19:45:25.058Z,6.43
2018-05-16T19:47:52.568Z,5.97
2018-05-16T19:50:20.097Z,5.53
2018-05-16T19:52:47.603Z,6.20
2018-05-16T19:55:15.111Z,6.70
2018-05-16T19:57:43.397Z,6.17
2018-05-16T20:00:12.831Z,5.77
2018-05-16T20:02:40.359Z,6.60
2018-05-16T20:05:07.860Z,6.27
2018-05-16T20:07:36.178Z,6.20
2018-05-16T20:10:03.678Z,7.03
2018-05-16T20:12:31.177Z,5.97
2018-05-16T20:14:59.465Z,6.37
2018-05-16T20:17:27.745Z,6.33
2018-05-16T20:19:55.270Z,6.00
2018-05-16T20:22:22.784Z,5.37
2018-05-16T20:24:50.309Z,6.20
2018-05-16T20:27:17.809Z,5.87
2018-05-16T20:29:45.310Z,6.07
2018-05-16T20:32:13.601Z,6.43
2018-05-16T20:34:41.866Z,6.77
2018-05-16T20:37:09.397Z,6.80
2018-05-16T20:39:40.464Z,5.70
2018-05-16T20:42:08.001Z,5.73
2018-05-16T20:44:35.513Z,5.83
2018-05-16T20:47:03.009Z,6.73
2018-05-16T20:49:30.537Z,6.93
2018-05-16T20:51:58.049Z,6.90
2018-05-16T20:54:25.582Z,6.03
2018-05-16T20:56:53.077Z,6.77
2018-05-16T20:59:20.625Z,9.03
2018-05-16T21:01:48.125Z,9.20
2018-05-16T21:04:15.626Z,9.70
2018-05-16T21:06:43.145Z,7.83
2018-05-16T21:09:10.645Z,7.70
2018-05-16T21:11:38.167Z,10.70
2018-05-16T21:14:05.665Z,8.37
2018-05-16T21:16:33.201Z,8.57
2018-05-16T21:19:00.706Z,12.70
2018-05-16T21:21:28.206Z,9.30
2018-05-16T21:23:56.497Z,6.80
2018-05-16T21:26:24.765Z,8.63
2018-05-16T21:28:52.289Z,8.17
2018-05-16T21:31:19.790Z,8.63
2018-05-16T21:33:47.333Z,8.33
2018-05-16T21:36:14.833Z,7.07
2018-05-16T21:38:42.337Z,7.87
2018-05-16T21:41:10.629Z,9.53
2018-05-16T21:43:38.153Z,8.27
2018-05-16T21:46:05.676Z,7.93
2018-05-16T21:48:33.181Z,10.40
2018-05-16T21:51:00.705Z,7.73
2018-05-16T21:53:28.970Z,6.80
2018-05-16T21:55:56.475Z,6.83
2018-05-16T21:58:24.000Z,7.40
2018-05-16T22:00:51.505Z,10.23
2018-05-16T22:03:19.797Z,8.40
2018-05-16T22:05:47.317Z,9.93
2018-05-16T22:08:14.837Z,9.03
2018-05-16T22:10:43.124Z,9.33
2018-05-16T22:13:11.394Z,10.70
2018-05-16T22:15:39.685Z,10.43
2018-05-16T22:18:07.959Z,10.37
2018-05-16T22:20:35.489Z,9.80
2018-05-16T22:23:02.989Z,10.03
2018-05-16T22:25:30.513Z,9.70
2018-05-16T22:27:58.017Z,8.87
2018-05-16T22:30:31.161Z,8.80
2018-05-16T22:33:05.029Z,11.87
2018-05-16T22:35:38.145Z,9.57
2018-05-16T22:38:11.339Z,10.40
2018-05-16T22:40:44.474Z,11.30
2018-05-16T22:43:12.985Z,9.20
2018-05-16T22:45:56.925Z,9.03
2018-05-16T22:48:24.429Z,6.37
2018-05-16T22:50:51.935Z,8.97
2018-05-16T22:53:19.461Z,10.63
2018-05-16T22:55:46.963Z,9.80
2018-05-16T22:58:14.481Z,8.93
2018-05-16T23:00:41.984Z,6.03
2018-05-16T23:03:09.513Z,7.80
2018-05-16T23:05:37.018Z,7.20
2018-05-16T23:08:04.522Z,10.97
2018-05-16T23:10:32.045Z,7.20
2018-05-16T23:13:00.310Z,10.33
2018-05-16T23:15:27.836Z,9.20
2018-05-16T23:17:55.337Z,8.60
2018-05-16T23:20:22.877Z,10.50
2018-05-16T23:22:50.405Z,8.73
2018-05-16T23:25:18.669Z,9.93
2018-05-16T23:27:46.185Z,9.23
2018-05-16T23:30:13.681Z,9.03
2018-05-16T23:32:41.201Z,8.83
2018-05-16T23:35:08.705Z,7.63
2018-05-16T23:37:36.233Z,7.27
2018-05-16T23:40:03.735Z,6.23
2018-05-16T23:42:31.241Z,7.57
2018-05-16T23:44:58.765Z,10.00
2018-05-16T23:47:27.035Z,9.43
2018-05-16T23:49:54.558Z,10.30
2018-05-16T23:52:22.057Z,5.97
2018-05-16T23:54:49.589Z,5.23
2018-05-16T23:57:17.093Z,7.40
2018-05-16T23:59:44.595Z,7.43
